Time;durP1;ratioP1;P1;durP2;ratioP2;P2;SDS_P1;SDS_P2;PMS_P1;PMS_P2;Temp;Humidity;BMP_temperature;BMP_pressure;BME280_temperature;BME280_humidity;BME280_pressure;Samples;Min_cycle;Max_cycle;Signal;HPM_P1;HPM_P2
2023/04/20 00:02:07;;;;;;;6.50;3.65;;;;;;;;;;5003307;28;20425;-82
2023/04/20 00:04:35;;;;;;;5.90;3.67;;;;;;;;;;5002668;28;20411;-83
2023/04/20 00:07:01;;;;;;;4.57;3.90;;;;;;;;;;5003146;28;20925;-82
2023/04/20 00:09:29;;;;;;;4.63;3.90;;;;;;;;;;5002548;28;20444;-83
2023/04/20 00:11:55;;;;;;;8.00;3.33;;;;;;;;;;5002152;28;20432;-82
2023/04/20 00:14:22;;;;;;;6.00;3.70;;;;;;;;;;5003972;28;20458;-82
2023/04/20 00:16:48;;;;;;;4.60;3.40;;;;;;;;;;5004942;28;20412;-83
2023/04/20 00:19:14;;;;;;;5.57;3.60;;;;;;;;;;5001471;28;20417;-82
2023/04/20 00:21:41;;;;;;;5.10;3.45;;;;;;;;;;5002504;28;20450;-83
2023/04/20 00:24:07;;;;;;;5.50;3.20;;;;;;;;;;5001826;28;20416;-83
2023/04/20 00:26:35;;;;;;;6.85;3.00;;;;;;;;;;5002629;28;20430;-83
2023/04/20 00:29:01;;;;;;;4.40;3.38;;;;;;;;;;5001778;28;20419;-83
2023/04/20 00:31:28;;;;;;;5.35;3.00;;;;;;;;;;5003366;28;20426;-82
2023/04/20 00:33:54;;;;;;;4.78;3.25;;;;;;;;;;5001337;28;20424;-82
2023/04/20 00:36:20;;;;;;;5.57;3.20;;;;;;;;;;5002657;28;20442;-83
2023/04/20 00:38:47;;;;;;;4.20;3.25;;;;;;;;;;5002767;28;20817;-82
2023/04/20 00:41:13;;;;;;;4.18;3.75;;;;;;;;;;5017684;28;20429;-82
2023/04/20 00:43:50;;;;;;;4.88;3.60;;;;;;;;;;5002003;28;20441;-83
2023/04/20 00:46:17;;;;;;;5.82;3.47;;;;;;;;;;5002645;28;20461;-83
2023/04/20 00:48:43;;;;;;;5.18;3.30;;;;;;;;;;5001315;28;20436;-83
2023/04/20 00:51:09;;;;;;;4.22;3.03;;;;;;;;;;5001870;28;20422;-83
2023/04/20 00:53:36;;;;;;;5.25;3.28;;;;;;;;;;5003854;28;20437;-82
2023/04/20 00:56:02;;;;;;;4.68;3.40;;;;;;;;;;5002311;28;20426;-85
2023/04/20 00:58:29;;;;;;;5.90;3.50;;;;;;;;;;5003493;28;20445;-83
2023/04/20 01:00:56;;;;;;;8.07;3.80;;;;;;;;;;5002126;28;20440;-82
2023/04/20 01:03:23;;;;;;;5.25;3.55;;;;;;;;;;5002265;28;20441;-82
2023/04/20 01:05:50;;;;;;;5.82;3.80;;;;;;;;;;5002424;28;20429;-82
2023/04/20 01:08:16;;;;;;;4.43;3.50;;;;;;;;;;5018358;28;20426;-83
2023/04/20 01:10:43;;;;;;;8.13;3.60;;;;;;;;;;5002037;28;20430;-83
2023/04/20 01:13:09;;;;;;;7.20;3.50;;;;;;;;;;5002085;28;20944;-83
2023/04/20 01:15:35;;;;;;;4.70;3.28;;;;;;;;;;5000789;28;20429;-82
2023/04/20 01:18:04;;;;;;;4.53;3.03;;;;;;;;;;5002839;28;20536;-82
2023/04/20 01:20:32;;;;;;;5.82;3.85;;;;;;;;;;5004094;28;20424;-83
2023/04/20 01:23:00;;;;;;;5.20;3.67;;;;;;;;;;5017193;28;20468;-83
2023/04/20 01:25:26;;;;;;;4.63;3.42;;;;;;;;;;5000473;28;20437;-82
2023/04/20 01:27:53;;;;;;;6.13;2.90;;;;;;;;;;5001598;28;20502;-82
2023/04/20 01:30:19;;;;;;;7.60;3.50;;;;;;;;;;5001664;28;20428;-83
2023/04/20 01:32:45;;;;;;;7.03;4.05;;;;;;;;;;5000812;28;20419;-83
2023/04/20 01:35:12;;;;;;;5.07;3.70;;;;;;;;;;5000143;28;20970;-82
2023/04/20 01:37:38;;;;;;;7.97;3.95;;;;;;;;;;5002183;28;20409;-82
2023/04/20 01:40:08;;;;;;;5.68;3.17;;;;;;;;;;4999112;28;20428;-84
2023/04/20 01:42:35;;;;;;;5.30;3.90;;;;;;;;;;5001916;28;20528;-84
2023/04/20 01:45:01;;;;;;;5.82;4.10;;;;;;;;;;4999722;28;20964;-83
2023/04/20 01:47:27;;;;;;;6.10;3.42;;;;;;;;;;5001955;28;20437;-83
2023/04/20 01:49:53;;;;;;;4.70;3.40;;;;;;;;;;4999188;28;20430;-83
2023/04/20 01:52:20;;;;;;;8.48;4.50;;;;;;;;;;5000849;28;20412;-82
2023/04/20 01:54:46;;;;;;;5.90;3.90;;;;;;;;;;5000289;28;20440;-84
2023/04/20 01:57:14;;;;;;;6.78;4.00;;;;;;;;;;5000204;28;20442;-82
2023/04/20 01:59:40;;;;;;;6.05;4.05;;;;;;;;;;5001632;28;20422;-83
2023/04/20 02:02:07;;;;;;;6.60;4.20;;;;;;;;;;5003371;28;20425;-83
2023/04/20 02:04:33;;;;;;;5.40;4.00;;;;;;;;;;5006742;28;20407;-83
2023/04/20 02:06:59;;;;;;;7.25;4.82;;;;;;;;;;5020153;28;20839;-83
2023/04/20 02:09:25;;;;;;;6.75;4.25;;;;;;;;;;5020842;28;20411;-83
2023/04/20 02:11:52;;;;;;;5.75;4.45;;;;;;;;;;5020008;28;20430;-83
2023/04/20 02:14:19;;;;;;;9.00;4.57;;;;;;;;;;5020040;28;20411;-82
2023/04/20 02:16:46;;;;;;;5.18;4.13;;;;;;;;;;5002347;28;20437;-83
2023/04/20 02:19:13;;;;;;;7.93;4.15;;;;;;;;;;5001148;28;20440;-83
2023/04/20 02:21:39;;;;;;;7.22;4.53;;;;;;;;;;5001478;28;20806;-83
2023/04/20 02:24:06;;;;;;;5.20;3.80;;;;;;;;;;5004056;28;20438;-82
2023/04/20 02:26:32;;;;;;;7.20;4.30;;;;;;;;;;5001425;28;20428;-83
2023/04/20 02:28:59;;;;;;;6.32;4.22;;;;;;;;;;5000293;28;20434;-83
2023/04/20 02:31:27;;;;;;;5.25;4.10;;;;;;;;;;4999807;28;20435;-83
2023/04/20 02:33:53;;;;;;;4.55;3.83;;;;;;;;;;5001044;28;20449;-83
2023/04/20 02:36:19;;;;;;;7.35;4.03;;;;;;;;;;5002877;28;20422;-82
2023/04/20 02:38:46;;;;;;;7.35;4.10;;;;;;;;;;5001983;28;20444;-82
2023/04/20 02:41:12;;;;;;;6.72;3.90;;;;;;;;;;4999812;28;20428;-82
2023/04/20 02:43:39;;;;;;;6.43;4.32;;;;;;;;;;5001507;28;20439;-82
2023/04/20 02:46:06;;;;;;;9.27;4.25;;;;;;;;;;4998390;28;20477;-83
2023/04/20 02:48:34;;;;;;;6.75;4.40;;;;;;;;;;5001183;28;20508;-83
2023/04/20 02:51:00;;;;;;;6.82;3.90;;;;;;;;;;4998296;28;20430;-84
2023/04/20 02:53:26;;;;;;;5.18;3.60;;;;;;;;;;5001033;28;20525;-82
2023/04/20 02:55:53;;;;;;;5.18;3.88;;;;;;;;;;5000421;28;20538;-82
2023/04/20 02:58:19;;;;;;;4.80;4.00;;;;;;;;;;5001178;28;20430;-84
2023/04/20 03:00:46;;;;;;;6.93;4.18;;;;;;;;;;5001054;28;20443;-82
2023/04/20 03:03:13;;;;;;;6.63;4.07;;;;;;;;;;4999160;28;20444;-83
2023/04/20 03:05:41;;;;;;;6.22;3.60;;;;;;;;;;5000609;28;21024;-82
2023/04/20 03:08:08;;;;;;;10.25;3.85;;;;;;;;;;5005007;28;20428;-83
2023/04/20 03:10:35;;;;;;;8.07;4.10;;;;;;;;;;5004388;28;20502;-88
2023/04/20 03:13:02;;;;;;;7.20;3.35;;;;;;;;;;5006564;28;20945;-82
2023/04/20 03:15:28;;;;;;;6.75;3.53;;;;;;;;;;5003426;28;20436;-82
2023/04/20 03:17:54;;;;;;;5.65;3.70;;;;;;;;;;5002980;28;20445;-82
2023/04/20 03:20:21;;;;;;;7.95;4.78;;;;;;;;;;5005100;28;20429;-83
2023/04/20 03:22:48;;;;;;;5.88;3.70;;;;;;;;;;5004640;28;20440;-82
2023/04/20 03:25:15;;;;;;;5.65;4.00;;;;;;;;;;5005022;28;20435;-83
2023/04/20 03:27:41;;;;;;;6.03;3.70;;;;;;;;;;5003159;28;20433;-83
2023/04/20 03:30:08;;;;;;;6.93;3.75;;;;;;;;;;5005464;28;20432;-83
2023/04/20 03:32:35;;;;;;;5.85;3.80;;;;;;;;;;5004163;28;20434;-82
2023/04/20 03:35:01;;;;;;;5.40;3.60;;;;;;;;;;5005175;28;20435;-82
2023/04/20 03:37:27;;;;;;;8.18;4.10;;;;;;;;;;5004637;28;20425;-84
2023/04/20 03:39:55;;;;;;;6.57;3.90;;;;;;;;;;5003237;28;20918;-82
2023/04/20 03:42:22;;;;;;;6.82;3.90;;;;;;;;;;5003776;28;20428;-83
2023/04/20 03:44:48;;;;;;;6.95;3.60;;;;;;;;;;5003424;28;20414;-83
2023/04/20 03:47:14;;;;;;;6.10;3.65;;;;;;;;;;5003690;28;20437;-82
2023/04/20 03:49:41;;;;;;;5.97;3.83;;;;;;;;;;5002037;28;20486;-82
2023/04/20 03:52:07;;;;;;;4.30;3.42;;;;;;;;;;5002567;28;20425;-83
2023/04/20 03:54:34;;;;;;;6.85;3.40;;;;;;;;;;5004618;28;20431;-83
2023/04/20 03:57:02;;;;;;;4.57;3.20;;;;;;;;;;5004906;28;20430;-82
2023/04/20 03:59:28;;;;;;;8.32;4.00;;;;;;;;;;5002877;28;20507;-82
2023/04/20 04:01:55;;;;;;;6.90;3.60;;;;;;;;;;5020435;28;20506;-83
2023/04/20 04:04:22;;;;;;;7.57;4.25;;;;;;;;;;5003313;28;20439;-83
2023/04/20 04:06:48;;;;;;;7.22;3.85;;;;;;;;;;5002963;28;20494;-83
2023/04/20 04:09:14;;;;;;;6.35;3.95;;;;;;;;;;5000747;28;20437;-82
2023/04/20 04:11:41;;;;;;;5.20;3.60;;;;;;;;;;5004523;28;20447;-82
2023/04/20 04:14:08;;;;;;;7.30;3.70;;;;;;;;;;5003755;28;20425;-82
2023/04/20 04:16:34;;;;;;;8.00;3.90;;;;;;;;;;5002946;28;20434;-82
2023/04/20 04:19:01;;;;;;;7.63;4.18;;;;;;;;;;5001597;28;20821;-83
2023/04/20 04:21:27;;;;;;;7.87;4.63;;;;;;;;;;5002980;28;20432;-82
2023/04/20 04:23:54;;;;;;;7.95;4.60;;;;;;;;;;5003538;28;20512;-82
2023/04/20 04:26:23;;;;;;;7.18;4.68;;;;;;;;;;5017301;28;20424;-83
2023/04/20 04:28:49;;;;;;;9.35;4.20;;;;;;;;;;5002470;28;20514;-82
2023/04/20 04:31:18;;;;;;;7.60;4.15;;;;;;;;;;5002154;28;20792;-83
2023/04/20 04:33:45;;;;;;;10.23;4.90;;;;;;;;;;5002406;28;20914;-82
2023/04/20 04:36:11;;;;;;;8.30;4.93;;;;;;;;;;5001842;28;20430;-82
2023/04/20 04:38:37;;;;;;;8.45;5.20;;;;;;;;;;5001150;28;20436;-82
2023/04/20 04:41:04;;;;;;;9.30;4.80;;;;;;;;;;5001533;28;20430;-82
2023/04/20 04:43:30;;;;;;;6.43;4.75;;;;;;;;;;5002901;28;20436;-82
2023/04/20 04:45:58;;;;;;;9.85;5.38;;;;;;;;;;5002231;28;20428;-83
2023/04/20 04:48:26;;;;;;;10.43;5.00;;;;;;;;;;4985461;28;21334;-83
2023/04/20 04:50:53;;;;;;;9.03;5.40;;;;;;;;;;5000975;28;20517;-83
2023/04/20 04:53:19;;;;;;;10.32;5.13;;;;;;;;;;5002760;28;20449;-82
2023/04/20 04:55:45;;;;;;;8.35;4.90;;;;;;;;;;5000335;28;20423;-82
2023/04/20 04:58:12;;;;;;;9.48;5.30;;;;;;;;;;5003061;28;20819;-83
2023/04/20 05:00:39;;;;;;;10.13;5.30;;;;;;;;;;5002859;28;20861;-83
2023/04/20 05:03:05;;;;;;;11.25;5.30;;;;;;;;;;5001979;28;20434;-83
2023/04/20 05:05:33;;;;;;;10.00;5.30;;;;;;;;;;5001983;28;20901;-82
2023/04/20 05:07:59;;;;;;;7.95;5.20;;;;;;;;;;5000165;28;20436;-86
2023/04/20 05:10:26;;;;;;;7.97;5.45;;;;;;;;;;5001742;28;20419;-82
2023/04/20 05:12:52;;;;;;;11.23;6.00;;;;;;;;;;5001411;28;20422;-82
2023/04/20 05:15:18;;;;;;;9.65;6.38;;;;;;;;;;5000772;28;20417;-83
2023/04/20 05:17:48;;;;;;;8.98;5.20;;;;;;;;;;5002590;28;20804;-83
2023/04/20 05:20:14;;;;;;;10.35;6.32;;;;;;;;;;5002363;28;20418;-83
2023/04/20 05:22:42;;;;;;;12.15;6.10;;;;;;;;;;5000192;28;20424;-83
2023/04/20 05:25:09;;;;;;;12.20;6.53;;;;;;;;;;5001235;28;20455;-82
2023/04/20 05:27:35;;;;;;;12.57;5.78;;;;;;;;;;5000388;28;20444;-82
2023/04/20 05:30:02;;;;;;;11.95;5.95;;;;;;;;;;4999854;28;20492;-82
2023/04/20 05:32:28;;;;;;;9.50;5.90;;;;;;;;;;5002471;28;20423;-82
2023/04/20 05:34:55;;;;;;;12.37;6.20;;;;;;;;;;5001690;28;20414;-83
2023/04/20 05:37:21;;;;;;;10.23;5.43;;;;;;;;;;5000904;28;20502;-83
2023/04/20 05:39:49;;;;;;;12.57;5.85;;;;;;;;;;4999302;28;20936;-83
2023/04/20 05:42:15;;;;;;;10.40;5.77;;;;;;;;;;5001749;28;20435;-82
2023/04/20 05:44:42;;;;;;;9.93;5.85;;;;;;;;;;5002096;28;20448;-83
2023/04/20 05:47:09;;;;;;;11.30;5.83;;;;;;;;;;5001040;28;20421;-83
2023/04/20 05:49:35;;;;;;;9.82;6.22;;;;;;;;;;5003098;28;20491;-82
2023/04/20 05:52:02;;;;;;;12.75;6.40;;;;;;;;;;5001238;28;20430;-84
2023/04/20 05:54:28;;;;;;;8.35;6.22;;;;;;;;;;5002402;28;20888;-83
2023/04/20 05:56:57;;;;;;;14.60;6.60;;;;;;;;;;5001520;28;20421;-83
2023/04/20 05:59:24;;;;;;;13.27;6.10;;;;;;;;;;5001160;28;20507;-83
2023/04/20 06:01:50;;;;;;;11.23;6.47;;;;;;;;;;5000813;28;20442;-83
2023/04/20 06:04:16;;;;;;;11.10;6.32;;;;;;;;;;5001720;28;20436;-82
2023/04/20 06:06:43;;;;;;;10.77;7.53;;;;;;;;;;5021033;28;20497;-82
2023/04/20 06:09:09;;;;;;;12.00;6.13;;;;;;;;;;5018383;28;20427;-82
2023/04/20 06:11:36;;;;;;;12.77;6.78;;;;;;;;;;5021988;28;20423;-82
2023/04/20 06:14:03;;;;;;;9.10;6.40;;;;;;;;;;5022208;28;20810;-83
2023/04/20 06:16:30;;;;;;;15.15;7.03;;;;;;;;;;5022165;28;20439;-83
2023/04/20 06:18:56;;;;;;;14.13;6.80;;;;;;;;;;5021984;28;20469;-82
2023/04/20 06:21:23;;;;;;;12.00;6.57;;;;;;;;;;5020622;28;20434;-82
2023/04/20 06:23:49;;;;;;;14.30;7.60;;;;;;;;;;5019631;28;20419;-83
2023/04/20 06:26:16;;;;;;;9.45;6.47;;;;;;;;;;5020391;28;20436;-84
2023/04/20 06:28:42;;;;;;;11.10;6.45;;;;;;;;;;5020137;28;20940;-83
2023/04/20 06:31:10;;;;;;;12.43;7.47;;;;;;;;;;5019501;28;20432;-83
2023/04/20 06:33:37;;;;;;;12.38;7.13;;;;;;;;;;5019250;28;20435;-83
2023/04/20 06:36:06;;;;;;;11.90;7.40;;;;;;;;;;5021736;28;20498;-83
2023/04/20 06:38:32;;;;;;;12.55;7.68;;;;;;;;;;5021197;28;20427;-82
2023/04/20 06:41:01;;;;;;;14.38;7.20;;;;;;;;;;5019146;28;20418;-83
2023/04/20 06:43:27;;;;;;;11.77;7.03;;;;;;;;;;5024680;28;20440;-83
2023/04/20 06:45:54;;;;;;;13.45;7.85;;;;;;;;;;5022218;28;20428;-83
2023/04/20 06:48:21;;;;;;;13.10;7.90;;;;;;;;;;5024828;28;20428;-83
2023/04/20 06:50:48;;;;;;;14.10;7.55;;;;;;;;;;5019514;28;20871;-83
2023/04/20 06:53:15;;;;;;;15.85;7.88;;;;;;;;;;5024914;28;20497;-83
2023/04/20 06:55:41;;;;;;;12.57;8.10;;;;;;;;;;5024261;28;20418;-83
2023/04/20 06:58:07;;;;;;;12.98;8.00;;;;;;;;;;5025012;28;20675;-83
2023/04/20 07:00:34;;;;;;;13.47;8.40;;;;;;;;;;5023241;28;20424;-84
2023/04/20 07:03:01;;;;;;;14.40;8.40;;;;;;;;;;5022672;28;20446;-83
2023/04/20 07:05:29;;;;;;;13.80;7.80;;;;;;;;;;5021940;28;20421;-82
2023/04/20 07:07:55;;;;;;;11.30;7.50;;;;;;;;;;5023523;28;20430;-83
2023/04/20 07:10:22;;;;;;;13.20;8.35;;;;;;;;;;5024078;28;20429;-83
2023/04/20 07:12:48;;;;;;;14.38;8.60;;;;;;;;;;5022403;28;20430;-83
2023/04/20 07:15:14;;;;;;;15.32;8.60;;;;;;;;;;5024250;28;20416;-83
2023/04/20 07:17:41;;;;;;;14.00;9.23;;;;;;;;;;5024122;28;20499;-83
2023/04/20 07:20:08;;;;;;;16.10;9.52;;;;;;;;;;5023434;28;21338;-85
2023/04/20 07:22:36;;;;;;;13.82;9.50;;;;;;;;;;5025743;28;20508;-82
2023/04/20 07:25:03;;;;;;;17.52;9.15;;;;;;;;;;5021480;28;20424;-82
2023/04/20 07:27:29;;;;;;;17.02;11.13;;;;;;;;;;5026456;28;20420;-82
2023/04/20 07:29:56;;;;;;;15.75;10.00;;;;;;;;;;5022188;28;20423;-83
2023/04/20 07:32:22;;;;;;;14.70;9.50;;;;;;;;;;5023673;28;20508;-83
2023/04/20 07:34:49;;;;;;;14.88;10.10;;;;;;;;;;5024088;28;20440;-83
2023/04/20 07:37:15;;;;;;;18.05;11.00;;;;;;;;;;5039894;28;20411;-82
2023/04/20 07:39:43;;;;;;;16.60;11.53;;;;;;;;;;5026146;28;20461;-83
2023/04/20 07:42:09;;;;;;;16.75;10.88;;;;;;;;;;5022521;28;20445;-84
2023/04/20 07:44:36;;;;;;;15.30;10.70;;;;;;;;;;5023476;28;20430;-82
2023/04/20 07:47:02;;;;;;;14.80;11.00;;;;;;;;;;5024856;28;20423;-83
2023/04/20 07:49:29;;;;;;;18.23;11.50;;;;;;;;;;5025125;28;20415;-83
2023/04/20 07:51:55;;;;;;;13.85;10.50;;;;;;;;;;5024459;28;20415;-85
2023/04/20 07:54:21;;;;;;;15.13;11.10;;;;;;;;;;5024809;28;20419;-83
2023/04/20 07:56:50;;;;;;;15.75;11.70;;;;;;;;;;5024333;28;20468;-83
2023/04/20 07:59:16;;;;;;;22.50;11.35;;;;;;;;;;5023677;28;20428;-83
2023/04/20 08:01:42;;;;;;;18.48;11.40;;;;;;;;;;5038167;28;21999;-83
2023/04/20 08:04:09;;;;;;;20.20;12.75;;;;;;;;;;5023413;28;20435;-83
2023/04/20 08:06:35;;;;;;;19.88;12.10;;;;;;;;;;5022762;28;20944;-83
2023/04/20 08:09:02;;;;;;;16.13;11.48;;;;;;;;;;5021997;28;20832;-83
2023/04/20 08:11:29;;;;;;;15.73;12.10;;;;;;;;;;5022996;28;20430;-83
2023/04/20 08:13:56;;;;;;;15.77;11.50;;;;;;;;;;5022960;28;20425;-83
2023/04/20 08:16:23;;;;;;;15.63;12.30;;;;;;;;;;5022167;28;20427;-83
2023/04/20 08:18:49;;;;;;;17.73;12.02;;;;;;;;;;5022654;28;20419;-83
2023/04/20 08:21:15;;;;;;;17.58;11.90;;;;;;;;;;5020760;28;20458;-88
2023/04/20 08:23:42;;;;;;;14.80;10.95;;;;;;;;;;5023612;28;20424;-83
2023/04/20 08:26:08;;;;;;;16.58;11.30;;;;;;;;;;5021804;28;20417;-85
2023/04/20 08:28:35;;;;;;;16.03;11.27;;;;;;;;;;5025348;28;20439;-83
2023/04/20 08:31:02;;;;;;;15.90;12.23;;;;;;;;;;5022739;28;20434;-83
2023/04/20 08:33:29;;;;;;;14.95;11.45;;;;;;;;;;5024082;28;20502;-83
2023/04/20 08:35:55;;;;;;;19.10;11.93;;;;;;;;;;5020529;28;20443;-83
2023/04/20 08:38:23;;;;;;;16.30;12.38;;;;;;;;;;5024028;28;20411;-83
2023/04/20 08:40:49;;;;;;;14.68;11.77;;;;;;;;;;5024228;28;20436;-83
2023/04/20 08:43:16;;;;;;;16.70;12.50;;;;;;;;;;5021505;28;20420;-87
2023/04/20 08:45:45;;;;;;;15.80;12.98;;;;;;;;;;5023977;28;20792;-83
2023/04/20 08:48:13;;;;;;;18.42;13.20;;;;;;;;;;5024557;28;20434;-83
2023/04/20 08:50:41;;;;;;;17.75;12.38;;;;;;;;;;5022803;28;20431;-83
2023/04/20 08:53:08;;;;;;;17.73;12.63;;;;;;;;;;5026034;28;20403;-83
2023/04/20 08:55:34;;;;;;;14.23;12.73;;;;;;;;;;5025352;28;20423;-83
2023/04/20 08:58:01;;;;;;;15.53;12.50;;;;;;;;;;5038266;28;20460;-84
2023/04/20 09:00:28;;;;;;;17.92;13.68;;;;;;;;;;5023557;28;20636;-84
2023/04/20 09:02:57;;;;;;;19.50;13.48;;;;;;;;;;5024592;28;20446;-84
2023/04/20 09:05:28;;;;;;;16.00;12.90;;;;;;;;;;5038488;28;20935;-83
2023/04/20 09:07:56;;;;;;;17.25;13.00;;;;;;;;;;5026859;28;20435;-83
2023/04/20 09:10:24;;;;;;;18.38;13.35;;;;;;;;;;5021324;28;20780;-83
2023/04/20 09:12:51;;;;;;;16.23;12.77;;;;;;;;;;5023222;28;20407;-83
2023/04/20 09:15:24;;;;;;;14.67;13.07;;;;;;;;;;5022530;28;20472;-83
2023/04/20 09:17:51;;;;;;;17.35;13.73;;;;;;;;;;5022913;28;20444;-83
2023/04/20 09:20:27;;;;;;;19.45;13.50;;;;;;;;;;5022835;28;20951;-85
2023/04/20 09:22:54;;;;;;;18.83;13.60;;;;;;;;;;5021846;28;20437;-82
2023/04/20 09:25:20;;;;;;;20.27;13.45;;;;;;;;;;5021693;28;20992;-83
2023/04/20 09:27:54;;;;;;;18.23;12.77;;;;;;;;;;5023576;28;20434;-83
2023/04/20 09:30:21;;;;;;;16.33;13.80;;;;;;;;;;5039410;28;20420;-83
2023/04/20 09:32:47;;;;;;;18.65;13.98;;;;;;;;;;5022851;28;20412;-83
2023/04/20 09:35:21;;;;;;;17.90;14.05;;;;;;;;;;5024508;28;20415;-85
2023/04/20 09:37:49;;;;;;;17.67;13.98;;;;;;;;;;5020603;28;20415;-83
2023/04/20 09:40:16;;;;;;;16.90;14.10;;;;;;;;;;5024289;28;20434;-87
2023/04/20 09:42:42;;;;;;;16.92;13.80;;;;;;;;;;5024792;28;20441;-84
2023/04/20 09:45:09;;;;;;;16.17;13.60;;;;;;;;;;5024346;28;20445;-83
2023/04/20 09:47:40;;;;;;;16.58;14.77;;;;;;;;;;5022938;28;20501;-83
2023/04/20 09:50:07;;;;;;;19.27;14.30;;;;;;;;;;5023503;28;20938;-83
2023/04/20 09:52:36;;;;;;;19.05;13.95;;;;;;;;;;5021013;28;20414;-83
2023/04/20 09:55:05;;;;;;;20.42;16.38;;;;;;;;;;5020648;28;20449;-84
2023/04/20 09:57:32;;;;;;;17.73;15.55;;;;;;;;;;5024472;28;20422;-83
2023/04/20 09:59:59;;;;;;;19.52;15.00;;;;;;;;;;5021618;28;20419;-83
2023/04/20 10:02:26;;;;;;;17.35;14.68;;;;;;;;;;5023415;28;21061;-83
2023/04/20 10:04:53;;;;;;;18.65;15.23;;;;;;;;;;5023970;28;20412;-83
2023/04/20 10:07:23;;;;;;;20.23;14.32;;;;;;;;;;5025828;28;20435;-83
2023/04/20 10:09:49;;;;;;;19.00;13.50;;;;;;;;;;5018581;28;20415;-83
2023/04/20 10:12:17;;;;;;;19.33;14.60;;;;;;;;;;5022161;28;20442;-88
2023/04/20 10:14:54;;;;;;;16.50;13.45;;;;;;;;;;5021247;28;20932;-83
2023/04/20 10:17:28;;;;;;;17.10;14.30;;;;;;;;;;5038390;28;20424;-84
2023/04/20 10:19:55;;;;;;;21.10;15.13;;;;;;;;;;5021473;28;20421;-83
2023/04/20 10:22:28;;;;;;;16.58;14.05;;;;;;;;;;5024533;28;20416;-83
2023/04/20 10:24:54;;;;;;;15.32;13.38;;;;;;;;;;5023318;28;20419;-84
2023/04/20 10:27:22;;;;;;;18.35;13.52;;;;;;;;;;5021870;28;20798;-85
2023/04/20 10:29:48;;;;;;;21.83;13.68;;;;;;;;;;5023138;28;20414;-83
2023/04/20 10:32:21;;;;;;;22.27;15.40;;;;;;;;;;5020965;28;20416;-83
2023/04/20 10:34:48;;;;;;;18.00;13.60;;;;;;;;;;5020894;28;21270;-83
2023/04/20 10:37:14;;;;;;;18.38;14.38;;;;;;;;;;5020931;28;20786;-84
2023/04/20 10:39:44;;;;;;;18.75;13.80;;;;;;;;;;5020199;28;20912;-84
2023/04/20 10:42:10;;;;;;;15.90;14.20;;;;;;;;;;5021818;28;20439;-85
2023/04/20 10:44:48;;;;;;;16.45;14.65;;;;;;;;;;5022901;28;20848;-86
2023/04/20 10:47:14;;;;;;;16.77;13.10;;;;;;;;;;5020536;28;20430;-84
2023/04/20 10:49:41;;;;;;;16.85;13.52;;;;;;;;;;5020295;28;20412;-83
2023/04/20 10:52:07;;;;;;;18.33;13.50;;;;;;;;;;5000783;28;20469;-83
2023/04/20 10:54:36;;;;;;;14.05;11.80;;;;;;;;;;5001983;28;20427;-83
2023/04/20 10:57:03;;;;;;;15.60;12.20;;;;;;;;;;4999636;28;20422;-83
2023/04/20 10:59:29;;;;;;;16.40;12.82;;;;;;;;;;5002947;28;20418;-85
2023/04/20 11:02:00;;;;;;;15.20;12.70;;;;;;;;;;5001610;28;20440;-83
2023/04/20 11:04:29;;;;;;;14.77;11.15;;;;;;;;;;5001704;28;20520;-83
2023/04/20 11:07:03;;;;;;;14.52;10.15;;;;;;;;;;5003527;28;20441;-83
2023/04/20 11:09:32;;;;;;;13.15;9.75;;;;;;;;;;5015869;28;20430;-83
2023/04/20 11:12:00;;;;;;;14.83;10.30;;;;;;;;;;5000946;28;20915;-83
2023/04/20 11:14:27;;;;;;;12.77;9.48;;;;;;;;;;5001991;28;20423;-85
2023/04/20 11:16:53;;;;;;;10.40;9.30;;;;;;;;;;5001710;28;20428;-84
2023/04/20 11:19:25;;;;;;;13.07;9.27;;;;;;;;;;5002006;28;20423;-84
2023/04/20 11:21:52;;;;;;;13.30;9.23;;;;;;;;;;5003755;28;20440;-83
2023/04/20 11:24:19;;;;;;;13.23;9.60;;;;;;;;;;5000837;28;20937;-83
2023/04/20 11:26:48;;;;;;;12.40;9.83;;;;;;;;;;5001820;28;20433;-83
2023/04/20 11:29:26;;;;;;;12.43;9.82;;;;;;;;;;5004146;28;20541;-83
2023/04/20 11:31:52;;;;;;;13.00;9.40;;;;;;;;;;5003844;28;20913;-83
2023/04/20 11:34:19;;;;;;;11.77;9.00;;;;;;;;;;5004424;28;20832;-84
2023/04/20 11:36:47;;;;;;;11.38;8.82;;;;;;;;;;5004597;28;20442;-84
2023/04/20 11:39:14;;;;;;;11.45;8.80;;;;;;;;;;5002789;28;20438;-83
2023/04/20 11:41:41;;;;;;;9.88;8.13;;;;;;;;;;5006132;28;20448;-83
2023/04/20 11:44:07;;;;;;;9.48;8.35;;;;;;;;;;5005690;28;20513;-84
2023/04/20 11:46:35;;;;;;;11.60;8.30;;;;;;;;;;5005252;28;20767;-85
2023/04/20 11:49:03;;;;;;;10.95;8.75;;;;;;;;;;5004515;28;20432;-84
2023/04/20 11:51:30;;;;;;;14.18;9.23;;;;;;;;;;5003324;28;20428;-85
2023/04/20 11:53:57;;;;;;;11.90;8.98;;;;;;;;;;5006014;28;20421;-84
2023/04/20 11:56:24;;;;;;;13.55;9.52;;;;;;;;;;5002914;28;20435;-84
2023/04/20 11:58:51;;;;;;;11.13;8.80;;;;;;;;;;5005178;28;20418;-83
2023/04/20 12:01:17;;;;;;;10.02;8.60;;;;;;;;;;5003883;28;20434;-84
2023/04/20 12:03:43;;;;;;;10.43;8.60;;;;;;;;;;5002622;28;20512;-85
2023/04/20 12:06:10;;;;;;;12.30;8.88;;;;;;;;;;5002178;28;20433;-83
2023/04/20 12:08:36;;;;;;;13.15;8.85;;;;;;;;;;5004948;28;20433;-84
2023/04/20 12:11:04;;;;;;;10.48;8.98;;;;;;;;;;5004133;28;20417;-83
2023/04/20 12:13:31;;;;;;;11.63;8.70;;;;;;;;;;5003565;28;20440;-84
2023/04/20 12:15:57;;;;;;;9.52;8.15;;;;;;;;;;5001794;28;20503;-84
2023/04/20 12:18:23;;;;;;;11.63;8.43;;;;;;;;;;5005077;28;20439;-84
2023/04/20 12:20:50;;;;;;;10.00;8.43;;;;;;;;;;5003077;28;20429;-83
2023/04/20 12:23:16;;;;;;;10.43;8.20;;;;;;;;;;5001762;28;20845;-84
2023/04/20 12:25:44;;;;;;;11.60;9.52;;;;;;;;;;5004006;28;20428;-84
2023/04/20 12:28:12;;;;;;;13.20;9.15;;;;;;;;;;5003615;28;20428;-85
2023/04/20 12:30:38;;;;;;;10.77;8.60;;;;;;;;;;5000664;28;20416;-83
2023/04/20 12:33:05;;;;;;;11.32;9.10;;;;;;;;;;5002518;28;20461;-83
2023/04/20 12:35:32;;;;;;;10.73;8.82;;;;;;;;;;5003823;28;20456;-84
2023/04/20 12:37:58;;;;;;;9.30;8.40;;;;;;;;;;5003253;28;20430;-84
2023/04/20 12:40:24;;;;;;;11.55;8.30;;;;;;;;;;5003738;28;20416;-84
2023/04/20 12:42:51;;;;;;;10.60;8.98;;;;;;;;;;5017422;28;20421;-83
2023/04/20 12:45:19;;;;;;;10.07;8.40;;;;;;;;;;5003131;28;20428;-84
2023/04/20 12:47:45;;;;;;;12.65;9.65;;;;;;;;;;5004993;28;20440;-83
2023/04/20 12:50:11;;;;;;;11.63;8.25;;;;;;;;;;5002331;28;20431;-84
2023/04/20 12:52:38;;;;;;;10.95;8.60;;;;;;;;;;5004430;28;20786;-84
2023/04/20 12:55:06;;;;;;;9.60;8.60;;;;;;;;;;5003425;28;20453;-83
2023/04/20 12:57:32;;;;;;;11.32;8.35;;;;;;;;;;5003284;28;20471;-83
2023/04/20 12:59:58;;;;;;;10.35;8.40;;;;;;;;;;5004168;28;20424;-84
2023/04/20 13:02:26;;;;;;;14.23;9.13;;;;;;;;;;5004390;28;20809;-84
2023/04/20 13:04:53;;;;;;;10.52;8.13;;;;;;;;;;5001427;28;20425;-85
2023/04/20 13:07:19;;;;;;;12.00;9.00;;;;;;;;;;5003860;28;20442;-84
2023/04/20 13:09:45;;;;;;;10.48;9.05;;;;;;;;;;5003275;28;20429;-86
2023/04/20 13:12:12;;;;;;;10.27;8.32;;;;;;;;;;5001500;28;20421;-84
2023/04/20 13:14:38;;;;;;;11.37;8.83;;;;;;;;;;5000419;28;20932;-83
2023/04/20 13:17:05;;;;;;;11.30;9.10;;;;;;;;;;5003256;28;20441;-84
2023/04/20 13:19:33;;;;;;;9.98;8.77;;;;;;;;;;5002463;28;20412;-84
2023/04/20 13:21:59;;;;;;;9.70;8.00;;;;;;;;;;5002174;28;20433;-85
2023/04/20 13:24:26;;;;;;;10.10;8.45;;;;;;;;;;5001814;28;20434;-85
2023/04/20 13:26:55;;;;;;;9.50;8.40;;;;;;;;;;5001868;28;20444;-84
2023/04/20 13:29:21;;;;;;;12.13;8.75;;;;;;;;;;5002295;28;20417;-83
2023/04/20 13:31:51;;;;;;;14.85;9.20;;;;;;;;;;5018819;23;20450;-80
2023/04/20 13:34:17;;;;;;;10.93;8.73;;;;;;;;;;4988519;28;20437;-79
2023/04/20 13:36:45;;;;;;;11.38;8.85;;;;;;;;;;5005231;28;20439;-80
2023/04/20 13:39:12;;;;;;;11.85;9.10;;;;;;;;;;5027256;28;20431;-79
2023/04/20 13:41:40;;;;;;;10.30;8.35;;;;;;;;;;5021701;28;20905;-80
2023/04/20 13:44:14;;;;;;;9.00;8.10;;;;;;;;;;5018045;28;20438;-80
2023/04/20 13:46:40;;;;;;;10.93;8.90;;;;;;;;;;5027807;28;20464;-79
2023/04/20 13:49:07;;;;;;;11.43;8.80;;;;;;;;;;5027391;28;20508;-81
2023/04/20 13:51:33;;;;;;;12.10;9.25;;;;;;;;;;5028739;28;20431;-80
2023/04/20 13:54:01;;;;;;;9.32;8.10;;;;;;;;;;5028201;28;20439;-83
2023/04/20 13:56:28;;;;;;;11.80;9.20;;;;;;;;;;5027467;28;20496;-83
2023/04/20 13:58:54;;;;;;;10.20;8.52;;;;;;;;;;5026760;28;20422;-81
2023/04/20 14:01:21;;;;;;;9.57;8.57;;;;;;;;;;5025766;28;20807;-82
2023/04/20 14:03:47;;;;;;;11.90;9.23;;;;;;;;;;5027810;28;20459;-82
2023/04/20 14:06:14;;;;;;;10.05;8.23;;;;;;;;;;5026199;28;20839;-82
2023/04/20 14:08:40;;;;;;;10.77;8.40;;;;;;;;;;5028073;28;20419;-81
2023/04/20 14:11:08;;;;;;;9.38;8.48;;;;;;;;;;5025148;28;20769;-81
2023/04/20 14:13:36;;;;;;;9.63;8.10;;;;;;;;;;5004063;28;20418;-82
2023/04/20 14:16:08;;;;;;;10.50;8.40;;;;;;;;;;5027911;28;20429;-80
2023/04/20 14:18:34;;;;;;;10.88;8.55;;;;;;;;;;5004147;28;20839;-81
2023/04/20 14:21:01;;;;;;;9.32;8.32;;;;;;;;;;4993769;28;20423;-82
2023/04/20 14:23:27;;;;;;;10.60;7.97;;;;;;;;;;5020579;28;20935;-80
2023/04/20 14:25:53;;;;;;;12.82;8.50;;;;;;;;;;5026294;28;20419;-81
2023/04/20 14:28:21;;;;;;;11.00;8.43;;;;;;;;;;5028318;28;20438;-81
2023/04/20 14:30:50;;;;;;;10.90;8.45;;;;;;;;;;5027515;28;20434;-81